Time;durP1;ratioP1;P1;durP2;ratioP2;P2;SDS_P1;SDS_P2;PMS_P1;PMS_P2;Temp;Humidity;BMP_temperature;BMP_pressure;BME280_temperature;BME280_humidity;BME280_pressure;Samples;Min_cycle;Max_cycle;Signal;HPM_P1;HPM_P2
2021/08/20 00:02:07;;;;;;;1.13;1.02;;;;;;;20.19;51.26;98449.00;5074822;28;20028;-69
2021/08/20 00:04:33;;;;;;;2.17;1.10;;;;;;;20.12;51.69;98452.97;5073613;28;20554;-70
2021/08/20 00:06:59;;;;;;;0.55;0.55;;;;;;;20.07;51.86;98446.69;5075223;28;20116;-70
2021/08/20 00:09:26;;;;;;;4.15;0.82;;;;;;;20.04;51.93;98442.56;5073774;28;20055;-70
2021/08/20 00:11:52;;;;;;;1.50;1.38;;;;;;;20.01;51.83;98447.91;5074548;28;20103;-68
2021/08/20 00:14:18;;;;;;;1.95;1.23;;;;;;;19.97;51.85;98449.66;5075123;28;20105;-69
2021/08/20 00:16:44;;;;;;;2.78;0.93;;;;;;;19.95;52.07;98449.97;5082693;28;20036;-70
2021/08/20 00:19:10;;;;;;;1.83;1.55;;;;;;;19.93;51.94;98443.84;5083083;28;20059;-71
2021/08/20 00:21:36;;;;;;;0.85;0.82;;;;;;;19.91;52.06;98454.50;5076494;28;20037;-70
2021/08/20 00:24:02;;;;;;;0.30;0.30;;;;;;;19.89;52.24;98446.44;5074730;28;20082;-71
2021/08/20 00:26:28;;;;;;;0.38;0.32;;;;;;;19.88;52.29;98455.09;5107255;28;20037;-69
2021/08/20 00:28:54;;;;;;;1.25;0.75;;;;;;;19.85;52.28;98450.16;5075146;28;20497;-69
2021/08/20 00:31:20;;;;;;;0.65;0.65;;;;;;;19.81;52.19;98441.56;5075119;28;20032;-70
2021/08/20 00:33:46;;;;;;;0.90;0.82;;;;;;;19.80;52.17;98442.69;5074512;28;20089;-75
2021/08/20 00:36:12;;;;;;;0.20;0.20;;;;;;;19.80;52.20;98453.81;5074861;28;20028;-72
2021/08/20 00:38:38;;;;;;;1.27;0.77;;;;;;;19.78;52.30;98450.53;5074453;28;20463;-72
2021/08/20 00:41:12;;;;;;;0.50;0.50;;;;;;;19.77;52.28;98446.91;5074352;28;20032;-72
2021/08/20 00:43:43;;;;;;;0.95;0.95;;;;;;;19.77;52.51;98451.63;5074694;28;20037;-71
2021/08/20 00:46:09;;;;;;;0.68;0.68;;;;;;;19.77;52.31;98455.25;5074491;28;20051;-72
2021/08/20 00:48:34;;;;;;;0.40;0.40;;;;;;;19.79;52.48;98452.19;5074371;28;20040;-73
2021/08/20 00:51:07;;;;;;;0.75;0.73;;;;;;;19.80;52.48;98451.03;5074260;28;20051;-72
2021/08/20 00:53:35;;;;;;;0.65;0.63;;;;;;;19.80;52.41;98453.00;5074831;28;20037;-71
2021/08/20 00:56:03;;;;;;;0.75;0.75;;;;;;;19.78;52.55;98448.56;5074222;28;20039;-71
2021/08/20 00:58:31;;;;;;;1.80;0.60;;;;;;;19.81;52.54;98454.66;5074089;28;20163;-72
2021/08/20 01:00:57;;;;;;;1.15;1.05;;;;;;;19.83;52.63;98457.97;5073990;28;20119;-71
2021/08/20 01:03:24;;;;;;;4.65;1.23;;;;;;;19.82;52.57;98456.31;5073769;28;20163;-71
2021/08/20 01:05:57;;;;;;;1.30;0.93;;;;;;;19.83;52.60;98458.81;5073726;28;20040;-70
2021/08/20 01:08:24;;;;;;;0.63;0.47;;;;;;;19.85;52.65;98453.75;5073853;28;20036;-71
2021/08/20 01:10:55;;;;;;;0.38;0.38;;;;;;;19.90;52.51;98455.63;5073922;28;20032;-70
2021/08/20 01:13:21;;;;;;;0.73;0.73;;;;;;;19.96;52.45;98459.97;5073832;28;20398;-71
2021/08/20 01:15:47;;;;;;;2.20;1.77;;;;;;;20.03;52.30;98462.38;5073535;28;20040;-69
2021/08/20 01:18:24;;;;;;;0.93;0.93;;;;;;;20.10;52.19;98451.66;5106233;28;20029;-71
2021/08/20 01:20:52;;;;;;;1.88;0.98;;;;;;;20.19;52.05;98451.78;5073433;28;20038;-70
2021/08/20 01:23:18;;;;;;;2.90;1.92;;;;;;;20.26;51.79;98458.59;5072499;28;20067;-70
2021/08/20 01:25:48;;;;;;;0.77;0.77;;;;;;;20.35;51.94;98463.47;5075130;28;20024;-75
2021/08/20 01:28:14;;;;;;;1.80;0.95;;;;;;;20.44;51.83;98464.41;5073522;28;20028;-69
2021/08/20 01:30:40;;;;;;;0.88;0.88;;;;;;;20.54;51.53;98458.63;5073224;28;20123;-73
2021/08/20 01:33:06;;;;;;;1.85;1.33;;;;;;;20.70;51.23;98461.97;5073475;28;20032;-70
2021/08/20 01:35:33;;;;;;;1.75;1.20;;;;;;;21.28;50.25;98471.59;5072846;28;20025;-71
2021/08/20 01:38:00;;;;;;;0.52;0.47;;;;;;;22.35;48.17;98467.31;5073476;28;20055;-70
2021/08/20 01:40:26;;;;;;;0.57;0.57;;;;;;;23.65;45.64;98467.97;5073217;28;20562;-67
2021/08/20 01:42:52;;;;;;;0.65;0.65;;;;;;;24.75;43.93;98473.22;5073288;28;20074;-68
2021/08/20 01:45:19;;;;;;;1.27;0.63;;;;;;;25.62;43.00;98466.25;5073315;28;20060;-73
2021/08/20 01:47:44;;;;;;;1.77;1.08;;;;;;;26.42;41.96;98480.41;5073923;28;20039;-70
2021/08/20 01:50:11;;;;;;;0.93;0.80;;;;;;;27.15;41.08;98471.19;5073175;28;20032;-72
2021/08/20 01:52:38;;;;;;;1.42;0.68;;;;;;;27.86;40.29;98473.75;5073412;28;20123;-74
2021/08/20 01:55:06;;;;;;;0.50;0.50;;;;;;;28.46;39.56;98463.34;5073249;28;20410;-71
2021/08/20 01:57:32;;;;;;;0.10;0.10;;;;;;;29.07;39.08;98471.75;5072800;28;20039;-71
2021/08/20 01:59:58;;;;;;;0.65;0.65;;;;;;;29.60;38.29;98474.19;5072782;28;20175;-70
2021/08/20 02:02:24;;;;;;;0.47;0.43;;;;;;;30.13;38.01;98483.00;5072846;28;20025;-70
2021/08/20 02:04:49;;;;;;;2.83;0.98;;;;;;;30.61;37.68;98477.06;5072574;28;20032;-69
2021/08/20 02:07:16;;;;;;;0.47;0.47;;;;;;;31.08;37.10;98463.66;5072866;28;20115;-69
2021/08/20 02:09:42;;;;;;;0.80;0.73;;;;;;;31.58;36.67;98477.81;5072838;28;20036;-68
2021/08/20 02:12:07;;;;;;;0.05;0.05;;;;;;;32.10;36.43;98478.88;5073017;28;20086;-69
2021/08/20 02:14:33;;;;;;;0.55;0.32;;;;;;;32.55;36.16;98472.47;5073793;28;20099;-71
2021/08/20 02:16:59;;;;;;;2.03;0.75;;;;;;;32.91;35.67;98473.66;5076757;28;20025;-69
2021/08/20 02:19:25;;;;;;;0.30;0.30;;;;;;;33.31;35.11;98477.63;5087890;28;20033;-69
2021/08/20 02:21:50;;;;;;;0.40;0.40;;;;;;;33.68;35.06;98481.50;5076320;28;20041;-69
2021/08/20 02:24:16;;;;;;;0.55;0.55;;;;;;;34.00;34.94;98480.88;5073383;28;20037;-69
2021/08/20 02:26:42;;;;;;;1.63;0.73;;;;;;;34.33;34.31;98478.97;5072876;28;20060;-69
2021/08/20 02:29:07;;;;;;;2.47;0.65;;;;;;;34.51;34.71;98479.84;5072403;28;20029;-67
2021/08/20 02:31:33;;;;;;;0.57;0.57;;;;;;;34.83;34.37;98483.97;5072617;28;20048;-69
2021/08/20 02:33:59;;;;;;;0.52;0.52;;;;;;;35.20;34.06;98477.81;5072419;28;20032;-68
2021/08/20 02:36:24;;;;;;;0.43;0.43;;;;;;;35.58;33.16;98485.94;5072775;28;20032;-69
2021/08/20 02:38:51;;;;;;;0.20;0.20;;;;;;;35.91;33.09;98476.09;5072177;28;20060;-69
2021/08/20 02:41:17;;;;;;;1.65;0.65;;;;;;;36.30;32.99;98486.53;5072157;28;20036;-69
2021/08/20 02:43:43;;;;;;;1.45;1.35;;;;;;;36.74;32.32;98489.91;5073012;28;20043;-70
2021/08/20 02:46:09;;;;;;;0.32;0.32;;;;;;;37.18;32.22;98485.50;5072321;28;20140;-68
2021/08/20 02:48:35;;;;;;;0.30;0.30;;;;;;;37.57;31.87;98482.69;5072722;28;20574;-69
2021/08/20 02:51:01;;;;;;;0.60;0.60;;;;;;;37.83;31.61;98476.28;5072482;28;20143;-68
2021/08/20 02:53:27;;;;;;;2.60;0.50;;;;;;;38.21;31.33;98476.22;5072954;28;20032;-68
2021/08/20 02:56:02;;;;;;;0.30;0.30;;;;;;;38.51;30.98;98468.81;5074222;28;20103;-70
2021/08/20 02:58:28;;;;;;;1.27;0.63;;;;;;;38.89;30.40;98474.41;5073214;28;20036;-67
2021/08/20 03:00:54;;;;;;;0.73;0.57;;;;;;;39.54;29.68;98478.22;5073222;28;20033;-67
2021/08/20 03:03:20;;;;;;;2.40;0.68;;;;;;;39.81;29.68;98475.22;5072448;28;20115;-68
2021/08/20 03:05:45;;;;;;;0.35;0.30;;;;;;;39.88;29.56;98477.16;5070702;28;20418;-69
2021/08/20 03:08:11;;;;;;;0.40;0.40;;;;;;;39.98;29.73;98479.00;5072361;28;20044;-68
2021/08/20 03:10:37;;;;;;;0.50;0.50;;;;;;;40.13;29.71;98481.59;5072434;28;20056;-68
2021/08/20 03:13:04;;;;;;;1.75;0.50;;;;;;;40.42;29.29;98467.38;5071024;28;20495;-69
2021/08/20 03:15:29;;;;;;;0.63;0.60;;;;;;;40.78;29.02;98478.06;5072223;28;20035;-70
2021/08/20 03:17:55;;;;;;;0.50;0.50;;;;;;;41.55;28.39;98480.66;5072255;28;20032;-69
2021/08/20 03:20:22;;;;;;;0.57;0.50;;;;;;;41.90;27.72;98467.31;5073080;28;20044;-70
2021/08/20 03:22:48;;;;;;;0.43;0.43;;;;;;;42.09;27.63;98479.16;5072067;28;20083;-68
2021/08/20 03:25:14;;;;;;;0.40;0.40;;;;;;;42.16;27.66;98482.63;5071954;28;20515;-70
2021/08/20 03:27:39;;;;;;;2.15;0.93;;;;;;;42.14;28.17;98473.63;5071934;28;20032;-70
2021/08/20 03:30:06;;;;;;;1.85;0.40;;;;;;;42.21;28.17;98474.69;5072075;28;20028;-69
2021/08/20 03:32:32;;;;;;;0.52;0.52;;;;;;;42.29;27.69;98484.75;5072064;28;20036;-69
2021/08/20 03:34:57;;;;;;;3.03;1.00;;;;;;;42.45;27.55;98490.44;5071653;28;20554;-71
2021/08/20 03:37:23;;;;;;;0.98;0.38;;;;;;;42.66;27.69;98479.50;5072236;28;20059;-69
2021/08/20 03:39:49;;;;;;;0.75;0.55;;;;;;;42.96;27.14;98483.84;5071961;28;20109;-68
2021/08/20 03:42:15;;;;;;;0.90;0.57;;;;;;;43.16;26.93;98483.63;5072015;28;20433;-69
2021/08/20 03:44:40;;;;;;;0.28;0.28;;;;;;;43.32;27.06;98488.44;5072171;28;20534;-69
2021/08/20 03:47:06;;;;;;;2.78;0.73;;;;;;;43.39;26.93;98479.50;5073986;28;20040;-68
2021/08/20 03:49:32;;;;;;;0.70;0.70;;;;;;;43.57;26.46;98487.56;5075557;28;20034;-69
2021/08/20 03:51:57;;;;;;;0.40;0.40;;;;;;;43.85;26.43;98481.22;5075862;28;20028;-67
2021/08/20 03:54:23;;;;;;;1.52;0.70;;;;;;;43.96;26.39;98487.41;5074467;28;20434;-68
2021/08/20 03:56:49;;;;;;;0.45;0.45;;;;;;;43.96;26.69;98486.59;5077818;28;20028;-69
2021/08/20 03:59:15;;;;;;;0.15;0.15;;;;;;;44.15;26.33;98487.53;5077117;28;20035;-67
2021/08/20 04:01:47;;;;;;;0.30;0.30;;;;;;;44.41;25.75;98479.53;5079249;28;20116;-70
2021/08/20 04:04:13;;;;;;;0.55;0.55;;;;;;;44.64;25.63;98486.88;5074722;28;20123;-69
2021/08/20 04:06:39;;;;;;;0.93;0.93;;;;;;;44.84;25.90;98480.69;5077004;28;20394;-69
2021/08/20 04:09:05;;;;;;;0.40;0.40;;;;;;;44.91;25.42;98491.16;5078474;28;20052;-67
2021/08/20 04:11:31;;;;;;;0.50;0.50;;;;;;;44.95;25.40;98486.00;5094731;28;20055;-67
2021/08/20 04:14:01;;;;;;;1.77;0.17;;;;;;;45.10;25.42;98494.94;5096535;28;20048;-68
2021/08/20 04:16:27;;;;;;;1.05;0.73;;;;;;;45.19;25.31;98483.38;5096376;28;20032;-66
2021/08/20 04:18:53;;;;;;;0.20;0.20;;;;;;;45.21;25.21;98483.69;5096297;28;20039;-67
2021/08/20 04:21:19;;;;;;;1.80;1.17;;;;;;;45.27;25.41;98481.75;5098212;28;20037;-67
2021/08/20 04:23:45;;;;;;;1.20;0.50;;;;;;;45.42;25.32;98484.88;5095862;28;20032;-69
2021/08/20 04:26:11;;;;;;;0.40;0.40;;;;;;;45.64;24.56;98483.91;5091767;28;20119;-68
2021/08/20 04:28:36;;;;;;;2.03;1.30;;;;;;;45.83;24.59;98490.53;5093330;28;20043;-68
2021/08/20 04:31:02;;;;;;;0.40;0.40;;;;;;;45.86;24.77;98483.78;5077964;28;20036;-68
2021/08/20 04:33:28;;;;;;;1.83;1.05;;;;;;;46.02;24.15;98484.72;5075924;28;20037;-69
2021/08/20 04:35:54;;;;;;;0.30;0.30;;;;;;;46.09;24.31;98481.50;5075640;28;20148;-69
2021/08/20 04:38:19;;;;;;;2.60;0.75;;;;;;;46.11;24.01;98481.81;5075574;28;20032;-69
2021/08/20 04:40:45;;;;;;;1.00;0.85;;;;;;;46.20;23.97;98478.91;5074973;28;20052;-68
2021/08/20 04:43:11;;;;;;;0.22;0.22;;;;;;;46.26;23.94;98494.34;5073853;28;20038;-68
2021/08/20 04:45:36;;;;;;;1.00;0.52;;;;;;;45.73;24.79;98489.72;5075004;28;20095;-71
2021/08/20 04:48:02;;;;;;;0.35;0.35;;;;;;;45.42;25.01;98479.06;5074886;28;20490;-68
2021/08/20 04:50:29;;;;;;;0.30;0.30;;;;;;;45.35;24.65;98485.19;5074653;28;20039;-69
2021/08/20 04:52:56;;;;;;;5.47;0.85;;;;;;;44.81;25.19;98486.63;5074391;28;20029;-69
2021/08/20 04:55:23;;;;;;;0.32;0.32;;;;;;;43.23;26.78;98477.59;5076045;28;20495;-69
2021/08/20 04:57:49;;;;;;;1.20;1.13;;;;;;;40.99;29.14;98491.13;5075163;28;20086;-70
2021/08/20 05:00:23;;;;;;;0.60;0.60;;;;;;;38.84;31.62;98483.53;5073513;28;20032;-70
2021/08/20 05:02:49;;;;;;;1.13;0.98;;;;;;;37.17;33.64;98494.50;5081047;28;20039;-68
2021/08/20 05:05:15;;;;;;;1.52;0.93;;;;;;;35.91;34.53;98486.69;5092589;28;20024;-69
2021/08/20 05:07:42;;;;;;;1.25;0.90;;;;;;;34.94;35.75;98478.25;5092691;28;20023;-68
2021/08/20 05:10:11;;;;;;;13.35;1.23;;;;;;;34.21;36.23;98480.94;5093146;28;20063;-69
2021/08/20 05:12:41;;;;;;;1.63;0.95;;;;;;;33.63;36.40;98470.50;5090090;28;20498;-69
2021/08/20 05:15:08;;;;;;;1.20;0.55;;;;;;;33.14;36.35;98479.13;5092369;28;20067;-69
2021/08/20 05:17:34;;;;;;;0.80;0.80;;;;;;;32.82;36.39;98487.41;5092445;28;20393;-68
2021/08/20 05:20:00;;;;;;;2.22;0.57;;;;;;;32.49;36.50;98492.75;5089605;28;20036;-68
2021/08/20 05:22:26;;;;;;;1.80;0.80;;;;;;;32.14;36.72;98491.13;5090847;28;20516;-70
2021/08/20 05:24:51;;;;;;;0.30;0.30;;;;;;;31.88;36.64;98486.31;5092618;28;20032;-69
2021/08/20 05:27:17;;;;;;;0.60;0.20;;;;;;;31.59;36.71;98488.75;5092741;28;20076;-73
2021/08/20 05:29:43;;;;;;;1.02;0.93;;;;;;;31.35;36.64;98481.50;5092068;28;20039;-69
2021/08/20 05:32:09;;;;;;;1.23;0.90;;;;;;;31.17;36.75;98480.41;5092270;28;20032;-69
2021/08/20 05:34:36;;;;;;;0.57;0.35;;;;;;;31.04;36.52;98485.50;5091773;28;20028;-69
2021/08/20 05:37:01;;;;;;;0.52;0.52;;;;;;;30.95;36.28;98482.06;5092657;28;20364;-69
2021/08/20 05:39:27;;;;;;;0.55;0.55;;;;;;;30.86;36.08;98480.31;5092250;28;20505;-70
2021/08/20 05:41:53;;;;;;;0.63;0.63;;;;;;;30.83;36.10;98480.25;5091754;28;20032;-70
2021/08/20 05:44:19;;;;;;;0.13;0.13;;;;;;;30.82;35.67;98478.63;5092403;28;20479;-69
2021/08/20 05:46:44;;;;;;;0.57;0.55;;;;;;;30.80;35.52;98475.34;5092012;28;20036;-72
2021/08/20 05:49:10;;;;;;;0.65;0.63;;;;;;;30.78;35.50;98470.03;5091750;28;20051;-69
2021/08/20 05:51:36;;;;;;;1.45;0.77;;;;;;;30.74;35.39;98472.00;5091727;28;20497;-68
2021/08/20 05:54:01;;;;;;;0.98;0.38;;;;;;;30.73;35.30;98476.03;5091969;28;20803;-68
2021/08/20 05:56:27;;;;;;;0.47;0.35;;;;;;;30.69;35.09;98478.00;5091957;28;20032;-68
2021/08/20 05:58:53;;;;;;;2.03;1.02;;;;;;;30.65;35.17;98474.28;5091762;28;20020;-69
2021/08/20 06:01:20;;;;;;;2.25;0.85;;;;;;;30.57;35.24;98471.31;5091605;28;20057;-70
2021/08/20 06:03:45;;;;;;;1.38;1.17;;;;;;;30.51;35.28;98475.66;5090968;28;20385;-70
2021/08/20 06:06:13;;;;;;;0.82;0.82;;;;;;;30.44;35.16;98475.53;5091540;28;20111;-69
2021/08/20 06:08:39;;;;;;;1.38;0.80;;;;;;;30.35;35.39;98472.91;5091573;28;20501;-69
2021/08/20 06:11:04;;;;;;;2.47;0.88;;;;;;;30.30;35.46;98480.88;5090681;28;20038;-70
2021/08/20 06:13:30;;;;;;;1.35;1.05;;;;;;;30.28;35.47;98472.75;5091935;28;20035;-69
2021/08/20 06:15:56;;;;;;;1.55;0.65;;;;;;;30.26;35.47;98480.03;5097353;28;20110;-68
2021/08/20 06:18:22;;;;;;;0.95;0.80;;;;;;;30.22;35.71;98479.94;5102370;28;20454;-69
2021/08/20 06:20:47;;;;;;;0.52;0.52;;;;;;;30.21;35.34;98484.78;5093944;28;20477;-71
2021/08/20 06:23:14;;;;;;;0.57;0.57;;;;;;;30.23;35.41;98481.59;5091837;28;20051;-69
2021/08/20 06:25:40;;;;;;;0.45;0.30;;;;;;;30.23;35.43;98475.91;5088431;28;20065;-71
2021/08/20 06:28:06;;;;;;;0.17;0.17;;;;;;;30.22;35.52;98479.94;5089847;28;20036;-69
2021/08/20 06:30:31;;;;;;;0.50;0.50;;;;;;;30.24;35.67;98477.53;5086374;28;20044;-69
2021/08/20 06:32:57;;;;;;;2.35;1.00;;;;;;;30.23;35.51;98475.91;5089307;28;20409;-70
2021/08/20 06:35:23;;;;;;;1.77;0.85;;;;;;;30.28;35.55;98483.28;5087595;28;20550;-70
2021/08/20 06:37:48;;;;;;;0.65;0.65;;;;;;;30.31;35.33;98477.69;5088106;28;20028;-69
2021/08/20 06:40:14;;;;;;;0.45;0.35;;;;;;;30.33;35.50;98472.47;5084874;28;20103;-69
2021/08/20 06:42:40;;;;;;;0.45;0.45;;;;;;;30.36;35.44;98485.03;5089571;28;20453;-69
2021/08/20 06:45:06;;;;;;;0.30;0.30;;;;;;;30.37;35.41;98469.69;5089575;28;20036;-69
2021/08/20 06:47:32;;;;;;;1.48;1.08;;;;;;;30.37;35.51;98473.38;5087503;28;20043;-69
2021/08/20 06:49:58;;;;;;;1.08;0.60;;;;;;;30.43;35.40;98481.56;5086593;28;20036;-69
2021/08/20 06:52:24;;;;;;;0.20;0.20;;;;;;;30.44;35.33;98477.56;5090075;28;20032;-71
2021/08/20 06:54:49;;;;;;;1.17;0.65;;;;;;;30.48;35.32;98482.09;5090298;28;20032;-70
2021/08/20 06:57:15;;;;;;;0.70;0.70;;;;;;;30.50;35.27;98479.69;5090519;28;20118;-69
2021/08/20 06:59:41;;;;;;;0.75;0.60;;;;;;;30.52;35.25;98476.47;5090574;28;20035;-69
2021/08/20 07:02:07;;;;;;;1.55;0.20;;;;;;;30.56;34.96;98483.84;5089454;28;20043;-69
2021/08/20 07:04:34;;;;;;;1.13;0.68;;;;;;;30.61;34.88;98485.56;5088657;28;20375;-69
2021/08/20 07:07:00;;;;;;;1.45;0.75;;;;;;;30.61;34.98;98476.22;5090098;28;20081;-70
2021/08/20 07:09:27;;;;;;;0.90;0.82;;;;;;;30.58;34.79;98469.31;5090484;28;20028;-69
2021/08/20 07:11:53;;;;;;;0.85;0.85;;;;;;;30.57;35.19;98484.66;5090343;28;20069;-70
2021/08/20 07:14:19;;;;;;;0.55;0.35;;;;;;;30.56;34.86;98483.03;5090256;28;20024;-68
2021/08/20 07:16:46;;;;;;;0.38;0.38;;;;;;;30.56;35.00;98488.69;5087228;28;20123;-68
2021/08/20 07:19:11;;;;;;;0.32;0.32;;;;;;;30.59;34.86;98490.75;5083243;28;20107;-70
2021/08/20 07:21:37;;;;;;;1.00;0.30;;;;;;;30.64;34.77;98483.97;5088658;28;20032;-69
2021/08/20 07:24:03;;;;;;;2.45;1.55;;;;;;;30.67;34.85;98478.38;5094125;28;20554;-71
2021/08/20 07:26:29;;;;;;;2.17;0.40;;;;;;;30.69;34.71;98487.31;5092386;28;20498;-71
2021/08/20 07:28:55;;;;;;;0.40;0.40;;;;;;;30.74;34.58;98481.34;5094259;28;20035;-70
2021/08/20 07:31:20;;;;;;;0.60;0.60;;;;;;;30.78;34.61;98483.41;5093500;28;20120;-69
2021/08/20 07:33:46;;;;;;;0.57;0.57;;;;;;;30.80;34.47;98475.34;5093229;28;20035;-70
2021/08/20 07:36:12;;;;;;;0.55;0.45;;;;;;;30.81;34.63;98482.66;5094074;28;20048;-68
2021/08/20 07:38:39;;;;;;;0.40;0.40;;;;;;;30.80;34.73;98486.66;5093735;28;20386;-70
2021/08/20 07:41:05;;;;;;;2.95;0.68;;;;;;;30.80;34.54;98489.50;5091150;28;20093;-68
2021/08/20 07:43:30;;;;;;;0.43;0.40;;;;;;;30.82;34.46;98489.97;5093529;28;20131;-70
2021/08/20 07:45:56;;;;;;;1.45;0.70;;;;;;;30.85;34.47;98486.38;5093483;28;20031;-70
2021/08/20 07:48:23;;;;;;;0.25;0.25;;;;;;;30.85;34.47;98489.19;5093761;28;20028;-70
2021/08/20 07:50:49;;;;;;;0.63;0.55;;;;;;;30.83;34.37;98491.59;5091281;28;20387;-69
2021/08/20 07:53:17;;;;;;;1.15;1.08;;;;;;;30.80;34.48;98493.19;5093899;28;20018;-70
2021/08/20 07:55:44;;;;;;;0.30;0.30;;;;;;;30.82;34.55;98481.47;5093902;28;20036;-70
2021/08/20 07:58:10;;;;;;;1.23;1.05;;;;;;;30.87;34.32;98481.94;5091055;28;20035;-70
2021/08/20 08:00:37;;;;;;;1.17;0.70;;;;;;;30.91;34.15;98485.66;5092882;28;20521;-69
2021/08/20 08:03:02;;;;;;;0.88;0.75;;;;;;;30.96;34.11;98484.50;5093744;28;20039;-70
2021/08/20 08:05:28;;;;;;;0.85;0.40;;;;;;;31.01;33.94;98487.06;5092796;28;20024;-70
2021/08/20 08:07:56;;;;;;;1.13;1.02;;;;;;;31.05;33.90;98479.44;5093862;28;20029;-70
2021/08/20 08:10:22;;;;;;;0.88;0.77;;;;;;;31.12;33.69;98480.75;5093315;28;20116;-70
2021/08/20 08:12:49;;;;;;;0.32;0.32;;;;;;;31.16;33.63;98484.47;5094330;28;20035;-70
2021/08/20 08:15:15;;;;;;;2.15;1.70;;;;;;;31.20;33.63;98493.81;5109547;28;20115;-69
2021/08/20 08:17:41;;;;;;;0.90;0.65;;;;;;;31.22;33.28;98485.78;5099247;28;20055;-70
2021/08/20 08:20:09;;;;;;;1.55;1.15;;;;;;;31.25;33.34;98485.00;5091770;28;20032;-69
2021/08/20 08:22:35;;;;;;;2.00;1.17;;;;;;;31.27;33.13;98479.75;5093243;28;20050;-70
2021/08/20 08:25:02;;;;;;;0.75;0.32;;;;;;;31.30;33.30;98481.81;5093298;28;20027;-69
2021/08/20 08:27:28;;;;;;;0.75;0.60;;;;;;;31.32;33.19;98485.13;5092798;28;20034;-70
2021/08/20 08:29:54;;;;;;;0.52;0.50;;;;;;;31.34;33.20;98482.72;5091497;28;20103;-70
2021/08/20 08:32:20;;;;;;;0.60;0.60;;;;;;;31.33;32.91;98486.75;5090946;28;20133;-69
2021/08/20 08:34:45;;;;;;;1.98;1.35;;;;;;;31.35;32.67;98484.34;5092376;28;20032;-68
2021/08/20 08:37:12;;;;;;;0.73;0.63;;;;;;;31.38;32.81;98488.44;5092965;28;20028;-69
2021/08/20 08:39:38;;;;;;;0.93;0.85;;;;;;;31.41;32.67;98482.81;5092223;28;20141;-70
2021/08/20 08:42:05;;;;;;;0.57;0.55;;;;;;;31.41;32.76;98479.16;5092534;28;20058;-70
2021/08/20 08:44:31;;;;;;;0.40;0.40;;;;;;;31.45;32.63;98492.19;5092661;28;20043;-70
2021/08/20 08:46:59;;;;;;;0.90;0.85;;;;;;;31.44;32.51;98482.03;5092614;28;20031;-70
2021/08/20 08:49:26;;;;;;;1.65;0.63;;;;;;;31.50;32.41;98485.38;5093084;28;20024;-69
2021/08/20 08:51:52;;;;;;;0.65;0.65;;;;;;;31.57;32.46;98490.38;5092774;28;20383;-70
2021/08/20 08:54:17;;;;;;;1.45;0.55;;;;;;;31.60;32.26;98489.59;5092658;28;20034;-73
2021/08/20 08:56:44;;;;;;;0.40;0.40;;;;;;;31.59;32.38;98474.56;5094242;28;20035;-73
2021/08/20 08:59:11;;;;;;;1.45;0.55;;;;;;;31.60;32.26;98472.56;5092718;28;20032;-73
2021/08/20 09:01:38;;;;;;;1.48;0.40;;;;;;;31.61;32.27;98479.88;5092008;28;20494;-69
2021/08/20 09:04:12;;;;;;;0.82;0.82;;;;;;;31.61;32.20;98477.03;5088652;28;20035;-70
2021/08/20 09:06:50;;;;;;;0.22;0.22;;;;;;;31.60;32.27;98479.06;5091073;28;20036;-71
2021/08/20 09:09:20;;;;;;;0.38;0.25;;;;;;;31.61;32.08;98485.53;5091137;28;20028;-71
2021/08/20 09:11:54;;;;;;;2.00;0.95;;;;;;;31.61;32.21;98483.53;5091700;28;20028;-71
2021/08/20 09:14:28;;;;;;;0.65;0.57;;;;;;;31.61;31.98;98475.03;5088971;28;20032;-72
2021/08/20 09:16:55;;;;;;;0.43;0.43;;;;;;;31.62;31.63;98475.84;5091679;28;20047;-70
2021/08/20 09:19:22;;;;;;;0.50;0.50;;;;;;;31.60;31.92;98476.22;5090754;28;20555;-68
2021/08/20 09:21:54;;;;;;;0.40;0.40;;;;;;;31.58;31.93;98487.16;5091452;28;20030;-70
2021/08/20 09:24:36;;;;;;;0.77;0.60;;;;;;;31.59;31.89;98485.94;5088501;28;20028;-71
2021/08/20 09:27:28;;;;;;;0.25;0.25;;;;;;;31.67;31.57;98478.34;5091435;28;20035;-70
2021/08/20 09:30:06;;;;;;;0.25;0.25;;;;;;;31.68;31.62;98490.50;5084642;28;20045;-71
2021/08/20 09:32:33;;;;;;;0.47;0.30;;;;;;;31.67;31.79;98491.72;5091264;28;20153;-71
2021/08/20 09:35:00;;;;;;;1.50;1.05;;;;;;;31.66;31.55;98490.09;5091440;28;20028;-70
2021/08/20 09:37:28;;;;;;;1.20;0.98;;;;;;;31.66;31.82;98490.91;5091909;28;20020;-71
2021/08/20 09:40:03;;;;;;;0.20;0.20;;;;;;;31.73;31.75;98487.31;5091104;28;20629;-73
2021/08/20 09:42:28;;;;;;;0.38;0.30;;;;;;;31.74;31.39;98503.16;5088930;28;20036;-71
2021/08/20 09:45:15;;;;;;;0.82;0.70;;;;;;;31.76;31.45;98493.06;5089122;28;20444;-70
2021/08/20 09:47:47;;;;;;;0.10;0.10;;;;;;;31.76;31.53;98490.22;5089836;28;20127;-72
2021/08/20 09:50:13;;;;;;;1.45;0.65;;;;;;;31.79;31.42;98491.47;5090670;28;20032;-70
2021/08/20 09:52:39;;;;;;;0.45;0.38;;;;;;;31.80;31.28;98501.63;5088620;28;20165;-69
2021/08/20 09:55:05;;;;;;;0.20;0.20;;;;;;;31.79;31.18;98500.00;5091454;28;20077;-69
2021/08/20 09:57:33;;;;;;;0.13;0.13;;;;;;;31.83;31.25;98483.81;5091417;28;20434;-67
2021/08/20 09:59:59;;;;;;;1.08;0.82;;;;;;;31.82;30.95;98495.56;5085297;28;20078;-66
2021/08/20 10:02:26;;;;;;;0.40;0.40;;;;;;;31.88;30.99;98492.00;5090793;28;20032;-64
2021/08/20 10:04:58;;;;;;;0.60;0.60;;;;;;;31.87;31.16;98486.72;5089897;28;20097;-65
2021/08/20 10:07:27;;;;;;;0.20;0.20;;;;;;;31.84;31.19;98498.84;5085899;28;20386;-66
2021/08/20 10:10:01;;;;;;;0.40;0.40;;;;;;;31.82;31.22;98496.38;5090077;28;20024;-68
2021/08/20 10:12:28;;;;;;;0.73;0.73;;;;;;;31.80;31.14;98490.25;5081709;28;20032;-71
2021/08/20 10:14:54;;;;;;;0.85;0.47;;;;;;;31.81;31.02;98496.78;5091851;28;20094;-69
2021/08/20 10:17:20;;;;;;;0.55;0.55;;;;;;;31.81;31.02;98491.09;5090839;28;20061;-71
2021/08/20 10:19:51;;;;;;;0.60;0.38;;;;;;;31.78;31.04;98490.66;5090165;28;20027;-69
2021/08/20 10:22:20;;;;;;;0.30;0.30;;;;;;;31.76;31.14;98495.91;5089419;28;20031;-67
2021/08/20 10:24:46;;;;;;;0.30;0.30;;;;;;;31.75;31.14;98497.09;5089170;28;20063;-68
2021/08/20 10:27:16;;;;;;;1.13;1.02;;;;;;;31.74;31.23;98494.66;5086423;28;20060;-68
2021/08/20 10:29:47;;;;;;;1.88;0.57;;;;;;;31.74;31.29;98486.13;5088929;28;20032;-69
2021/08/20 10:32:16;;;;;;;0.52;0.52;;;;;;;31.71;31.33;98493.38;5087416;28;20028;-69
2021/08/20 10:34:43;;;;;;;0.57;0.57;;;;;;;31.72;31.23;98480.84;5085437;28;20370;-69
2021/08/20 10:37:11;;;;;;;0.20;0.20;;;;;;;31.76;31.13;98486.59;5088502;28;20445;-70
2021/08/20 10:39:43;;;;;;;0.65;0.65;;;;;;;31.83;31.32;98475.28;5085586;28;20071;-68
2021/08/20 10:42:16;;;;;;;0.47;0.30;;;;;;;31.88;30.89;98474.16;5088046;28;20165;-69
2021/08/20 10:45:03;;;;;;;0.55;0.52;;;;;;;31.92;30.92;98483.50;5086636;28;20030;-69
2021/08/20 10:47:30;;;;;;;0.32;0.32;;;;;;;31.95;30.84;98477.09;5087157;28;20118;-69
2021/08/20 10:50:09;;;;;;;0.52;0.40;;;;;;;31.94;31.13;98473.41;5088427;28;20028;-68
2021/08/20 10:52:41;;;;;;;0.15;0.15;;;;;;;31.94;30.92;98475.44;5088233;28;20110;-69
2021/08/20 10:55:10;;;;;;;2.85;1.35;;;;;;;31.95;30.88;98471.41;5087765;28;20027;-68
2021/08/20 10:57:39;;;;;;;0.40;0.40;;;;;;;31.97;30.84;98488.88;5092206;28;20035;-67
2021/08/20 11:00:20;;;;;;;0.63;0.63;;;;;;;31.99;30.72;98477.94;5090530;28;20093;-71
2021/08/20 11:02:56;;;;;;;0.22;0.22;;;;;;;32.00;30.56;98475.94;5091324;28;20024;-70
2021/08/20 11:05:48;;;;;;;2.42;0.68;;;;;;;32.01;30.56;98471.84;5090505;28;20031;-70
2021/08/20 11:08:26;;;;;;;1.33;0.95;;;;;;;31.99;30.73;98472.25;5091367;28;20036;-70
2021/08/20 11:10:52;;;;;;;0.85;0.85;;;;;;;31.98;30.71;98476.31;5089540;28;20055;-70
2021/08/20 11:13:18;;;;;;;0.35;0.35;;;;;;;31.97;30.65;98480.34;5092185;28;20019;-68
2021/08/20 11:15:48;;;;;;;1.58;0.75;;;;;;;31.97;30.27;98480.34;5092346;28;20039;-70
2021/08/20 11:18:15;;;;;;;0.63;0.63;;;;;;;31.95;30.35;98482.78;5092405;28;20458;-70
2021/08/20 11:20:46;;;;;;;0.65;0.20;;;;;;;31.97;30.53;98478.31;5091633;28;20127;-71
2021/08/20 11:23:14;;;;;;;0.45;0.45;;;;;;;32.00;30.51;98471.06;5091727;28;20494;-69
2021/08/20 11:25:46;;;;;;;0.75;0.57;;;;;;;32.00;30.45;98479.56;5091540;28;20371;-71
2021/08/20 11:28:16;;;;;;;2.08;0.60;;;;;;;32.01;30.34;98474.69;5088448;28;20031;-68
2021/08/20 11:30:42;;;;;;;1.00;0.57;;;;;;;32.02;30.24;98485.66;5091382;28;20077;-68
2021/08/20 11:33:20;;;;;;;0.95;0.85;;;;;;;31.99;30.26;98480.78;5091778;28;20036;-68
2021/08/20 11:35:48;;;;;;;1.60;1.08;;;;;;;31.96;30.29;98482.38;5091079;28;20227;-68